sensor_id;sensor_type;location;lat;lon;timestamp;P1;durP1;ratioP1;P2;durP2;ratioP2
23682;SDS011;24897;53.514;10.482;2023-10-09T00:00:15;61.67;;;49.37;;
23682;SDS011;24897;53.514;10.482;2023-10-09T00:03:20;61.10;;;48.27;;
23682;SDS011;24897;53.514;10.482;2023-10-09T00:06:07;63.70;;;49.97;;
23682;SDS011;24897;53.514;10.482;2023-10-09T00:08:51;63.07;;;49.87;;
23682;SDS011;24897;53.514;10.482;2023-10-09T00:11:38;60.30;;;46.57;;
23682;SDS011;24897;53.514;10.482;2023-10-09T00:14:29;54.37;;;43.13;;
23682;SDS011;24897;53.514;10.482;2023-10-09T00:17:16;54.10;;;42.20;;
23682;SDS011;24897;53.514;10.482;2023-10-09T00:20:01;54.07;;;41.83;;
23682;SDS011;24897;53.514;10.482;2023-10-09T00:23:01;54.67;;;42.13;;
23682;SDS011;24897;53.514;10.482;2023-10-09T00:25:48;52.37;;;39.70;;
23682;SDS011;24897;53.514;10.482;2023-10-09T00:28:50;63.30;;;50.10;;
23682;SDS011;24897;53.514;10.482;2023-10-09T00:31:35;63.23;;;47.43;;
23682;SDS011;24897;53.514;10.482;2023-10-09T00:34:19;63.80;;;52.00;;
23682;SDS011;24897;53.514;10.482;2023-10-09T00:37:08;65.30;;;50.83;;
23682;SDS011;24897;53.514;10.482;2023-10-09T00:39:59;67.80;;;56.33;;
23682;SDS011;24897;53.514;10.482;2023-10-09T00:42:55;70.57;;;59.93;;
23682;SDS011;24897;53.514;10.482;2023-10-09T00:45:40;76.07;;;64.50;;
23682;SDS011;24897;53.514;10.482;2023-10-09T00:48:27;77.03;;;66.90;;
23682;SDS011;24897;53.514;10.482;2023-10-09T00:51:23;80.57;;;66.27;;
23682;SDS011;24897;53.514;10.482;2023-10-09T00:54:08;77.40;;;63.73;;
23682;SDS011;24897;53.514;10.482;2023-10-09T00:56:58;79.90;;;65.47;;
23682;SDS011;24897;53.514;10.482;2023-10-09T00:59:54;76.57;;;64.77;;
23682;SDS011;24897;53.514;10.482;2023-10-09T01:02:43;80.10;;;68.90;;
23682;SDS011;24897;53.514;10.482;2023-10-09T01:05:28;81.80;;;66.13;;
23682;SDS011;24897;53.514;10.482;2023-10-09T01:08:13;80.10;;;65.13;;
23682;SDS011;24897;53.514;10.482;2023-10-09T01:11:00;82.90;;;68.83;;
23682;SDS011;24897;53.514;10.482;2023-10-09T01:13:53;99.90;;;87.90;;
23682;SDS011;24897;53.514;10.482;2023-10-09T01:16:54;91.37;;;80.30;;
23682;SDS011;24897;53.514;10.482;2023-10-09T01:19:38;93.77;;;79.33;;
23682;SDS011;24897;53.514;10.482;2023-10-09T01:22:23;96.37;;;80.43;;
23682;SDS011;24897;53.514;10.482;2023-10-09T01:25:08;97.27;;;84.63;;
23682;SDS011;24897;53.514;10.482;2023-10-09T01:27:53;94.23;;;82.63;;
23682;SDS011;24897;53.514;10.482;2023-10-09T01:30:37;97.93;;;87.13;;
23682;SDS011;24897;53.514;10.482;2023-10-09T01:33:25;90.67;;;77.50;;
23682;SDS011;24897;53.514;10.482;2023-10-09T01:36:11;95.27;;;82.20;;
23682;SDS011;24897;53.514;10.482;2023-10-09T01:38:59;92.87;;;79.50;;
23682;SDS011;24897;53.514;10.482;2023-10-09T01:41:45;90.10;;;73.40;;
23682;SDS011;24897;53.514;10.482;2023-10-09T01:44:29;86.90;;;73.67;;
23682;SDS011;24897;53.514;10.482;2023-10-09T01:47:18;87.67;;;69.87;;
23682;SDS011;24897;53.514;10.482;2023-10-09T01:50:05;85.30;;;70.07;;
23682;SDS011;24897;53.514;10.482;2023-10-09T01:52:55;80.70;;;67.53;;
23682;SDS011;24897;53.514;10.482;2023-10-09T01:55:39;82.87;;;68.60;;
23682;SDS011;24897;53.514;10.482;2023-10-09T01:58:29;84.57;;;66.77;;
23682;SDS011;24897;53.514;10.482;2023-10-09T02:01:16;74.60;;;58.80;;
23682;SDS011;24897;53.514;10.482;2023-10-09T02:04:00;72.40;;;56.63;;
23682;SDS011;24897;53.514;10.482;2023-10-09T02:06:51;71.03;;;54.80;;
23682;SDS011;24897;53.514;10.482;2023-10-09T02:09:36;68.27;;;52.97;;
23682;SDS011;24897;53.514;10.482;2023-10-09T02:12:28;65.23;;;50.77;;
23682;SDS011;24897;53.514;10.482;2023-10-09T02:15:17;62.80;;;48.03;;
23682;SDS011;24897;53.514;10.482;2023-10-09T02:18:21;62.90;;;47.77;;
23682;SDS011;24897;53.514;10.482;2023-10-09T02:21:06;63.40;;;48.80;;
23682;SDS011;24897;53.514;10.482;2023-10-09T02:23:51;61.97;;;46.97;;
23682;SDS011;24897;53.514;10.482;2023-10-09T02:26:40;58.67;;;46.67;;
23682;SDS011;24897;53.514;10.482;2023-10-09T02:29:37;61.03;;;43.93;;
23682;SDS011;24897;53.514;10.482;2023-10-09T02:32:22;60.53;;;43.13;;
23682;SDS011;24897;53.514;10.482;2023-10-09T02:35:10;58.00;;;42.80;;
23682;SDS011;24897;53.514;10.482;2023-10-09T02:38:22;53.13;;;39.90;;
23682;SDS011;24897;53.514;10.482;2023-10-09T02:41:09;54.10;;;40.37;;
23682;SDS011;24897;53.514;10.482;2023-10-09T02:43:56;63.33;;;46.00;;
23682;SDS011;24897;53.514;10.482;2023-10-09T02:46:43;46.90;;;36.40;;
23682;SDS011;24897;53.514;10.482;2023-10-09T02:49:28;48.97;;;34.60;;
23682;SDS011;24897;53.514;10.482;2023-10-09T02:52:13;47.63;;;35.97;;
23682;SDS011;24897;53.514;10.482;2023-10-09T02:55:02;45.60;;;34.27;;
23682;SDS011;24897;53.514;10.482;2023-10-09T02:57:52;41.20;;;31.97;;
23682;SDS011;24897;53.514;10.482;2023-10-09T03:00:49;46.13;;;34.23;;
23682;SDS011;24897;53.514;10.482;2023-10-09T03:03:35;42.43;;;32.07;;
23682;SDS011;24897;53.514;10.482;2023-10-09T03:06:19;40.70;;;30.57;;
23682;SDS011;24897;53.514;10.482;2023-10-09T03:09:09;39.03;;;28.63;;
23682;SDS011;24897;53.514;10.482;2023-10-09T03:12:01;39.63;;;29.03;;
23682;SDS011;24897;53.514;10.482;2023-10-09T03:14:46;38.67;;;27.93;;
23682;SDS011;24897;53.514;10.482;2023-10-09T03:17:30;37.50;;;28.60;;
23682;SDS011;24897;53.514;10.482;2023-10-09T03:20:17;37.77;;;30.03;;
23682;SDS011;24897;53.514;10.482;2023-10-09T03:23:02;38.77;;;28.37;;
23682;SDS011;24897;53.514;10.482;2023-10-09T03:25:46;36.70;;;28.77;;
23682;SDS011;24897;53.514;10.482;2023-10-09T03:28:30;38.27;;;29.10;;
23682;SDS011;24897;53.514;10.482;2023-10-09T03:31:14;37.07;;;28.00;;
23682;SDS011;24897;53.514;10.482;2023-10-09T03:33:58;36.33;;;26.83;;
23682;SDS011;24897;53.514;10.482;2023-10-09T03:36:43;38.57;;;30.00;;
23682;SDS011;24897;53.514;10.482;2023-10-09T03:39:27;37.13;;;27.73;;
23682;SDS011;24897;53.514;10.482;2023-10-09T03:42:30;37.70;;;28.73;;
23682;SDS011;24897;53.514;10.482;2023-10-09T03:45:17;37.63;;;29.83;;
23682;SDS011;24897;53.514;10.482;2023-10-09T03:48:10;39.20;;;29.20;;
23682;SDS011;24897;53.514;10.482;2023-10-09T03:51:04;38.37;;;29.93;;
23682;SDS011;24897;53.514;10.482;2023-10-09T03:54:04;39.43;;;30.33;;
23682;SDS011;24897;53.514;10.482;2023-10-09T03:56:52;40.57;;;30.80;;
23682;SDS011;24897;53.514;10.482;2023-10-09T03:59:38;41.27;;;30.37;;
23682;SDS011;24897;53.514;10.482;2023-10-09T04:02:22;40.27;;;30.57;;
23682;SDS011;24897;53.514;10.482;2023-10-09T04:05:06;40.53;;;30.87;;
23682;SDS011;24897;53.514;10.482;2023-10-09T04:07:51;39.53;;;30.80;;
23682;SDS011;24897;53.514;10.482;2023-10-09T04:10:38;41.33;;;30.63;;
23682;SDS011;24897;53.514;10.482;2023-10-09T04:13:34;39.17;;;29.77;;
23682;SDS011;24897;53.514;10.482;2023-10-09T04:16:19;38.07;;;30.40;;
23682;SDS011;24897;53.514;10.482;2023-10-09T04:19:18;39.17;;;30.77;;
23682;SDS011;24897;53.514;10.482;2023-10-09T04:22:08;41.20;;;31.37;;
23682;SDS011;24897;53.514;10.482;2023-10-09T04:25:09;40.87;;;31.07;;
23682;SDS011;24897;53.514;10.482;2023-10-09T04:27:58;38.37;;;30.37;;
23682;SDS011;24897;53.514;10.482;2023-10-09T04:30:53;38.63;;;30.03;;
23682;SDS011;24897;53.514;10.482;2023-10-09T04:33:37;37.57;;;30.27;;
23682;SDS011;24897;53.514;10.482;2023-10-09T04:36:37;41.30;;;33.57;;
23682;SDS011;24897;53.514;10.482;2023-10-09T04:39:30;39.93;;;31.60;;
23682;SDS011;24897;53.514;10.482;2023-10-09T04:42:14;40.70;;;31.93;;
23682;SDS011;24897;53.514;10.482;2023-10-09T04:45:04;38.90;;;31.73;;
23682;SDS011;24897;53.514;10.482;2023-10-09T04:47:49;39.53;;;32.63;;
23682;SDS011;24897;53.514;10.482;2023-10-09T04:50:33;39.87;;;30.63;;
23682;SDS011;24897;53.514;10.482;2023-10-09T04:53:28;39.30;;;32.03;;
23682;SDS011;24897;53.514;10.482;2023-10-09T04:56:22;38.40;;;29.63;;
23682;SDS011;24897;53.514;10.482;2023-10-09T04:59:07;40.60;;;31.43;;
23682;SDS011;24897;53.514;10.482;2023-10-09T05:01:52;41.37;;;33.40;;
23682;SDS011;24897;53.514;10.482;2023-10-09T05:04:42;38.60;;;29.43;;
23682;SDS011;24897;53.514;10.482;2023-10-09T05:07:30;37.90;;;28.37;;
23682;SDS011;24897;53.514;10.482;2023-10-09T05:10:38;40.77;;;31.40;;
23682;SDS011;24897;53.514;10.482;2023-10-09T05:13:38;36.53;;;28.97;;
23682;SDS011;24897;53.514;10.482;2023-10-09T05:16:22;40.70;;;32.37;;
23682;SDS011;24897;53.514;10.482;2023-10-09T05:19:06;38.93;;;32.00;;
23682;SDS011;24897;53.514;10.482;2023-10-09T05:21:50;39.30;;;30.60;;
23682;SDS011;24897;53.514;10.482;2023-10-09T05:24:36;38.27;;;31.03;;
23682;SDS011;24897;53.514;10.482;2023-10-09T05:27:29;38.93;;;30.97;;
23682;SDS011;24897;53.514;10.482;2023-10-09T05:30:32;39.17;;;31.63;;
23682;SDS011;24897;53.514;10.482;2023-10-09T05:33:17;38.97;;;30.70;;
23682;SDS011;24897;53.514;10.482;2023-10-09T05:36:16;38.73;;;30.83;;
23682;SDS011;24897;53.514;10.482;2023-10-09T05:39:15;36.23;;;29.40;;
23682;SDS011;24897;53.514;10.482;2023-10-09T05:42:19;38.20;;;29.93;;
23682;SDS011;24897;53.514;10.482;2023-10-09T05:45:05;40.17;;;30.23;;
23682;SDS011;24897;53.514;10.482;2023-10-09T05:48:00;36.17;;;28.07;;
23682;SDS011;24897;53.514;10.482;2023-10-09T05:51:10;36.17;;;28.83;;
23682;SDS011;24897;53.514;10.482;2023-10-09T05:54:17;39.83;;;31.93;;
23682;SDS011;24897;53.514;10.482;2023-10-09T05:57:26;37.57;;;31.20;;
23682;SDS011;24897;53.514;10.482;2023-10-09T06:00:30;41.13;;;33.90;;
23682;SDS011;24897;53.514;10.482;2023-10-09T06:03:33;39.43;;;33.33;;
23682;SDS011;24897;53.514;10.482;2023-10-09T06:06:32;40.73;;;34.17;;
23682;SDS011;24897;53.514;10.482;2023-10-09T06:09:16;43.10;;;35.90;;
23682;SDS011;24897;53.514;10.482;2023-10-09T06:12:00;39.50;;;32.33;;
23682;SDS011;24897;53.514;10.482;2023-10-09T06:15:23;41.53;;;32.53;;
23682;SDS011;24897;53.514;10.482;2023-10-09T06:18:35;41.07;;;34.20;;
23682;SDS011;24897;53.514;10.482;2023-10-09T06:21:20;45.33;;;35.97;;
23682;SDS011;24897;53.514;10.482;2023-10-09T06:24:43;54.17;;;40.77;;
23682;SDS011;24897;53.514;10.482;2023-10-09T06:27:36;51.00;;;39.70;;
23682;SDS011;24897;53.514;10.482;2023-10-09T06:30:21;53.77;;;42.83;;
23682;SDS011;24897;53.514;10.482;2023-10-09T06:33:08;69.00;;;58.33;;
23682;SDS011;24897;53.514;10.482;2023-10-09T06:36:18;64.10;;;49.97;;
23682;SDS011;24897;53.514;10.482;2023-10-09T06:39:02;67.40;;;51.73;;
23682;SDS011;24897;53.514;10.482;2023-10-09T06:42:07;70.63;;;55.63;;
23682;SDS011;24897;53.514;10.482;2023-10-09T06:45:14;75.23;;;57.03;;
23682;SDS011;24897;53.514;10.482;2023-10-09T06:48:02;71.70;;;56.73;;
23682;SDS011;24897;53.514;10.482;2023-10-09T06:51:13;69.37;;;54.13;;
23682;SDS011;24897;53.514;10.482;2023-10-09T06:54:09;74.87;;;57.33;;
23682;SDS011;24897;53.514;10.482;2023-10-09T06:56:58;73.03;;;56.67;;
23682;SDS011;24897;53.514;10.482;2023-10-09T06:59:57;73.37;;;56.07;;
23682;SDS011;24897;53.514;10.482;2023-10-09T07:03:00;75.10;;;56.17;;
23682;SDS011;24897;53.514;10.482;2023-10-09T07:09:07;80.23;;;58.17;;
23682;SDS011;24897;53.514;10.482;2023-10-09T07:11:52;75.57;;;58.33;;
23682;SDS011;24897;53.514;10.482;2023-10-09T07:14:36;82.13;;;61.53;;
23682;SDS011;24897;53.514;10.482;2023-10-09T07:17:20;76.43;;;58.20;;
23682;SDS011;24897;53.514;10.482;2023-10-09T07:20:10;74.73;;;57.80;;
23682;SDS011;24897;53.514;10.482;2023-10-09T07:23:15;80.97;;;62.70;;
23682;SDS011;24897;53.514;10.482;2023-10-09T07:26:00;81.80;;;63.40;;
23682;SDS011;24897;53.514;10.482;2023-10-09T07:29:06;83.80;;;64.47;;
23682;SDS011;24897;53.514;10.482;2023-10-09T07:31:59;77.57;;;60.57;;
23682;SDS011;24897;53.514;10.482;2023-10-09T07:34:56;81.97;;;60.60;;
23682;SDS011;24897;53.514;10.482;2023-10-09T07:37:42;82.47;;;61.47;;
23682;SDS011;24897;53.514;10.482;2023-10-09T07:40:26;98.17;;;66.13;;
23682;SDS011;24897;53.514;10.482;2023-10-09T07:43:15;79.57;;;61.03;;
23682;SDS011;24897;53.514;10.482;2023-10-09T07:46:01;79.67;;;60.60;;
23682;SDS011;24897;53.514;10.482;2023-10-09T07:48:49;81.90;;;63.00;;
23682;SDS011;24897;53.514;10.482;2023-10-09T07:51:36;74.10;;;59.00;;
23682;SDS011;24897;53.514;10.482;2023-10-09T07:54:22;72.07;;;55.87;;
23682;SDS011;24897;53.514;10.482;2023-10-09T07:57:29;73.27;;;52.83;;
23682;SDS011;24897;53.514;10.482;2023-10-09T08:00:21;68.93;;;51.93;;
23682;SDS011;24897;53.514;10.482;2023-10-09T08:03:36;73.93;;;56.73;;
23682;SDS011;24897;53.514;10.482;2023-10-09T08:06:21;71.47;;;53.67;;
23682;SDS011;24897;53.514;10.482;2023-10-09T08:09:25;67.40;;;50.63;;
23682;SDS011;24897;53.514;10.482;2023-10-09T08:12:30;66.63;;;51.63;;
23682;SDS011;24897;53.514;10.482;2023-10-09T08:15:41;66.53;;;52.70;;
23682;SDS011;24897;53.514;10.482;2023-10-09T08:18:38;66.20;;;51.00;;
23682;SDS011;24897;53.514;10.482;2023-10-09T08:21:28;65.13;;;49.37;;
23682;SDS011;24897;53.514;10.482;2023-10-09T08:24:47;64.67;;;48.10;;
23682;SDS011;24897;53.514;10.482;2023-10-09T08:27:40;78.07;;;52.83;;
23682;SDS011;24897;53.514;10.482;2023-10-09T08:30:38;64.83;;;49.13;;
23682;SDS011;24897;53.514;10.482;2023-10-09T08:33:32;73.30;;;49.63;;
23682;SDS011;24897;53.514;10.482;2023-10-09T08:36:27;75.13;;;53.63;;
23682;SDS011;24897;53.514;10.482;2023-10-09T08:39:11;68.40;;;54.00;;
23682;SDS011;24897;53.514;10.482;2023-10-09T08:42:08;77.27;;;55.00;;
23682;SDS011;24897;53.514;10.482;2023-10-09T08:44:55;69.47;;;52.40;;
23682;SDS011;24897;53.514;10.482;2023-10-09T08:47:44;63.87;;;49.37;;
23682;SDS011;24897;53.514;10.482;2023-10-09T08:50:28;67.33;;;51.57;;
23682;SDS011;24897;53.514;10.482;2023-10-09T08:53:12;69.33;;;51.03;;
23682;SDS011;24897;53.514;10.482;2023-10-09T08:55:57;70.27;;;50.80;;
23682;SDS011;24897;53.514;10.482;2023-10-09T08:58:42;66.70;;;48.90;;
23682;SDS011;24897;53.514;10.482;2023-10-09T09:01:26;68.10;;;48.80;;
23682;SDS011;24897;53.514;10.482;2023-10-09T09:07:28;68.63;;;47.10;;
23682;SDS011;24897;53.514;10.482;2023-10-09T09:10:15;67.03;;;48.33;;
23682;SDS011;24897;53.514;10.482;2023-10-09T09:13:04;62.43;;;46.40;;
23682;SDS011;24897;53.514;10.482;2023-10-09T09:15:50;66.77;;;46.47;;
23682;SDS011;24897;53.514;10.482;2023-10-09T09:18:55;70.67;;;48.80;;
23682;SDS011;24897;53.514;10.482;2023-10-09T09:21:51;62.50;;;44.27;;
23682;SDS011;24897;53.514;10.482;2023-10-09T09:24:42;73.70;;;47.17;;
23682;SDS011;24897;53.514;10.482;2023-10-09T09:27:47;57.93;;;41.83;;
23682;SDS011;24897;53.514;10.482;2023-10-09T09:30:39;64.47;;;43.97;;
23682;SDS011;24897;53.514;10.482;2023-10-09T09:33:25;60.00;;;41.60;;
23682;SDS011;24897;53.514;10.482;2023-10-09T09:36:14;59.10;;;41.97;;
23682;SDS011;24897;53.514;10.482;2023-10-09T09:38:58;59.57;;;41.00;;
23682;SDS011;24897;53.514;10.482;2023-10-09T09:41:45;57.97;;;41.40;;
23682;SDS011;24897;53.514;10.482;2023-10-09T09:44:31;65.27;;;44.80;;
23682;SDS011;24897;53.514;10.482;2023-10-09T09:47:17;62.93;;;44.70;;
23682;SDS011;24897;53.514;10.482;2023-10-09T09:50:11;59.57;;;42.53;;
23682;SDS011;24897;53.514;10.482;2023-10-09T09:53:06;59.20;;;43.93;;
23682;SDS011;24897;53.514;10.482;2023-10-09T09:55:52;62.93;;;45.87;;
23682;SDS011;24897;53.514;10.482;2023-10-09T09:58:41;61.57;;;45.20;;
23682;SDS011;24897;53.514;10.482;2023-10-09T10:01:30;60.30;;;44.50;;
23682;SDS011;24897;53.514;10.482;2023-10-09T10:04:21;68.33;;;47.87;;
23682;SDS011;24897;53.514;10.482;2023-10-09T10:07:07;56.93;;;41.80;;
23682;SDS011;24897;53.514;10.482;2023-10-09T10:10:00;58.23;;;42.20;;
23682;SDS011;24897;53.514;10.482;2023-10-09T10:12:52;60.90;;;44.87;;
23682;SDS011;24897;53.514;10.482;2023-10-09T10:18:54;59.63;;;42.97;;
23682;SDS011;24897;53.514;10.482;2023-10-09T10:21:50;56.80;;;41.43;;
23682;SDS011;24897;53.514;10.482;2023-10-09T10:27:41;57.80;;;41.87;;
23682;SDS011;24897;53.514;10.482;2023-10-09T10:30:47;57.50;;;42.50;;
23682;SDS011;24897;53.514;10.482;2023-10-09T10:36:40;57.23;;;42.30;;
23682;SDS011;24897;53.514;10.482;2023-10-09T10:39:27;56.43;;;41.83;;
23682;SDS011;24897;53.514;10.482;2023-10-09T10:42:27;57.57;;;40.77;;
23682;SDS011;24897;53.514;10.482;2023-10-09T10:45:20;56.87;;;40.47;;
23682;SDS011;24897;53.514;10.482;2023-10-09T10:48:19;56.90;;;43.87;;
23682;SDS011;24897;53.514;10.482;2023-10-09T10:51:06;56.90;;;43.13;;
23682;SDS011;24897;53.514;10.482;2023-10-09T10:53:55;58.27;;;42.40;;
23682;SDS011;24897;53.514;10.482;2023-10-09T10:56:40;57.27;;;43.63;;
23682;SDS011;24897;53.514;10.482;2023-10-09T10:59:32;56.87;;;42.37;;
23682;SDS011;24897;53.514;10.482;2023-10-09T11:02:23;59.47;;;45.80;;
23682;SDS011;24897;53.514;10.482;2023-10-09T11:05:11;63.10;;;48.20;;
23682;SDS011;24897;53.514;10.482;2023-10-09T11:08:10;59.87;;;46.20;;
23682;SDS011;24897;53.514;10.482;2023-10-09T11:10:59;62.17;;;47.33;;
23682;SDS011;24897;53.514;10.482;2023-10-09T11:14:11;63.40;;;49.00;;
23682;SDS011;24897;53.514;10.482;2023-10-09T11:16:58;61.30;;;47.70;;
23682;SDS011;24897;53.514;10.482;2023-10-09T11:19:46;61.43;;;47.73;;
23682;SDS011;24897;53.514;10.482;2023-10-09T11:22:31;64.50;;;49.45;;
23682;SDS011;24897;53.514;10.482;2023-10-09T11:25:20;62.87;;;49.27;;
23682;SDS011;24897;53.514;10.482;2023-10-09T11:28:16;60.07;;;44.67;;
23682;SDS011;24897;53.514;10.482;2023-10-09T11:31:13;60.20;;;45.80;;
23682;SDS011;24897;53.514;10.482;2023-10-09T11:34:01;60.97;;;46.63;;
23682;SDS011;24897;53.514;10.482;2023-10-09T11:36:56;62.13;;;48.80;;
23682;SDS011;24897;53.514;10.482;2023-10-09T11:40:33;57.97;;;44.97;;
23682;SDS011;24897;53.514;10.482;2023-10-09T11:43:46;58.07;;;44.70;;
23682;SDS011;24897;53.514;10.482;2023-10-09T11:46:38;59.33;;;47.57;;
23682;SDS011;24897;53.514;10.482;2023-10-09T11:49:32;55.07;;;41.90;;
23682;SDS011;24897;53.514;10.482;2023-10-09T11:52:28;53.97;;;39.47;;
23682;SDS011;24897;53.514;10.482;2023-10-09T11:55:15;55.40;;;41.80;;
23682;SDS011;24897;53.514;10.482;2023-10-09T11:58:07;53.30;;;40.87;;
23682;SDS011;24897;53.514;10.482;2023-10-09T12:00:56;54.23;;;41.90;;
23682;SDS011;24897;53.514;10.482;2023-10-09T12:03:47;55.87;;;40.30;;
23682;SDS011;24897;53.514;10.482;2023-10-09T12:06:35;51.40;;;38.13;;
23682;SDS011;24897;53.514;10.482;2023-10-09T12:09:19;51.97;;;39.23;;
23682;SDS011;24897;53.514;10.482;2023-10-09T12:12:08;53.03;;;40.83;;
23682;SDS011;24897;53.514;10.482;2023-10-09T12:14:53;52.60;;;40.93;;
23682;SDS011;24897;53.514;10.482;2023-10-09T12:17:37;52.70;;;41.23;;
23682;SDS011;24897;53.514;10.482;2023-10-09T12:20:28;50.47;;;38.40;;
23682;SDS011;24897;53.514;10.482;2023-10-09T12:23:15;52.23;;;39.30;;
23682;SDS011;24897;53.514;10.482;2023-10-09T12:25:59;51.27;;;39.30;;
23682;SDS011;24897;53.514;10.482;2023-10-09T12:28:44;50.57;;;39.90;;
23682;SDS011;24897;53.514;10.482;2023-10-09T12:31:36;53.00;;;41.67;;
23682;SDS011;24897;53.514;10.482;2023-10-09T12:34:27;52.60;;;42.13;;
23682;SDS011;24897;53.514;10.482;2023-10-09T12:37:12;53.73;;;43.03;;
23682;SDS011;24897;53.514;10.482;2023-10-09T12:40:02;52.77;;;42.87;;
23682;SDS011;24897;53.514;10.482;2023-10-09T12:42:52;52.20;;;41.13;;
23682;SDS011;24897;53.514;10.482;2023-10-09T12:45:42;53.63;;;42.07;;
23682;SDS011;24897;53.514;10.482;2023-10-09T12:48:26;55.43;;;42.70;;
23682;SDS011;24897;53.514;10.482;2023-10-09T12:51:10;53.60;;;41.27;;
23682;SDS011;24897;53.514;10.482;2023-10-09T12:54:00;53.83;;;42.20;;
23682;SDS011;24897;53.514;10.482;2023-10-09T12:56:45;54.97;;;44.87;;
23682;SDS011;24897;53.514;10.482;2023-10-09T12:59:32;54.63;;;43.37;;
23682;SDS011;24897;53.514;10.482;2023-10-09T13:02:16;56.87;;;45.73;;
23682;SDS011;24897;53.514;10.482;2023-10-09T13:05:13;57.83;;;45.23;;
23682;SDS011;24897;53.514;10.482;2023-10-09T13:08:09;55.57;;;43.70;;
23682;SDS011;24897;53.514;10.482;2023-10-09T13:10:55;59.30;;;45.90;;
23682;SDS011;24897;53.514;10.482;2023-10-09T13:13:42;56.77;;;44.50;;
23682;SDS011;24897;53.514;10.482;2023-10-09T13:16:27;58.87;;;44.73;;
23682;SDS011;24897;53.514;10.482;2023-10-09T13:19:11;57.20;;;44.73;;
23682;SDS011;24897;53.514;10.482;2023-10-09T13:21:56;55.63;;;44.30;;
23682;SDS011;24897;53.514;10.482;2023-10-09T13:24:40;55.57;;;44.90;;
23682;SDS011;24897;53.514;10.482;2023-10-09T13:27:25;56.40;;;46.07;;
23682;SDS011;24897;53.514;10.482;2023-10-09T13:30:09;57.00;;;45.33;;
23682;SDS011;24897;53.514;10.482;2023-10-09T13:33:05;54.00;;;45.30;;
23682;SDS011;24897;53.514;10.482;2023-10-09T13:35:49;57.00;;;46.73;;
23682;SDS011;24897;53.514;10.482;2023-10-09T13:38:34;59.57;;;47.73;;
23682;SDS011;24897;53.514;10.482;2023-10-09T13:41:18;59.23;;;48.80;;
23682;SDS011;24897;53.514;10.482;2023-10-09T13:44:02;56.43;;;47.13;;
23682;SDS011;24897;53.514;10.482;2023-10-09T13:46:47;57.03;;;46.67;;
23682;SDS011;24897;53.514;10.482;2023-10-09T13:49:34;58.67;;;49.40;;
23682;SDS011;24897;53.514;10.482;2023-10-09T13:52:21;55.10;;;45.40;;
23682;SDS011;24897;53.514;10.482;2023-10-09T13:55:06;55.83;;;45.63;;
23682;SDS011;24897;53.514;10.482;2023-10-09T13:57:59;55.37;;;45.17;;
23682;SDS011;24897;53.514;10.482;2023-10-09T14:00:43;59.63;;;48.40;;
23682;SDS011;24897;53.514;10.482;2023-10-09T14:03:30;55.37;;;44.33;;
23682;SDS011;24897;53.514;10.482;2023-10-09T14:06:14;55.77;;;45.87;;
23682;SDS011;24897;53.514;10.482;2023-10-09T14:09:04;53.47;;;42.00;;
23682;SDS011;24897;53.514;10.482;2023-10-09T14:11:49;53.43;;;43.43;;
23682;SDS011;24897;53.514;10.482;2023-10-09T14:14:36;52.17;;;42.00;;
23682;SDS011;24897;53.514;10.482;2023-10-09T14:17:33;52.30;;;41.83;;
23682;SDS011;24897;53.514;10.482;2023-10-09T14:20:18;53.00;;;43.57;;
23682;SDS011;24897;53.514;10.482;2023-10-09T14:23:15;54.33;;;43.83;;
23682;SDS011;24897;53.514;10.482;2023-10-09T14:26:04;53.17;;;43.37;;
23682;SDS011;24897;53.514;10.482;2023-10-09T14:28:49;53.77;;;45.50;;
23682;SDS011;24897;53.514;10.482;2023-10-09T14:31:34;52.13;;;43.43;;
23682;SDS011;24897;53.514;10.482;2023-10-09T14:34:22;52.57;;;44.07;;
23682;SDS011;24897;53.514;10.482;2023-10-09T14:37:13;51.37;;;42.20;;
23682;SDS011;24897;53.514;10.482;2023-10-09T14:39:58;53.50;;;43.97;;
23682;SDS011;24897;53.514;10.482;2023-10-09T14:42:43;54.10;;;46.23;;
23682;SDS011;24897;53.514;10.482;2023-10-09T14:45:27;51.50;;;40.97;;
23682;SDS011;24897;53.514;10.482;2023-10-09T14:48:11;55.07;;;46.77;;
23682;SDS011;24897;53.514;10.482;2023-10-09T14:50:55;53.87;;;45.20;;
23682;SDS011;24897;53.514;10.482;2023-10-09T14:53:48;53.03;;;44.20;;
23682;SDS011;24897;53.514;10.482;2023-10-09T14:56:33;61.57;;;48.57;;
23682;SDS011;24897;53.514;10.482;2023-10-09T14:59:20;58.13;;;46.10;;
23682;SDS011;24897;53.514;10.482;2023-10-09T15:02:06;52.87;;;43.90;;
23682;SDS011;24897;53.514;10.482;2023-10-09T15:04:51;55.20;;;45.37;;
23682;SDS011;24897;53.514;10.482;2023-10-09T15:07:36;52.07;;;42.73;;
23682;SDS011;24897;53.514;10.482;2023-10-09T15:10:22;51.13;;;40.60;;
23682;SDS011;24897;53.514;10.482;2023-10-09T15:13:07;50.83;;;41.10;;
23682;SDS011;24897;53.514;10.482;2023-10-09T15:15:52;52.50;;;41.07;;
23682;SDS011;24897;53.514;10.482;2023-10-09T15:18:37;52.17;;;40.87;;
23682;SDS011;24897;53.514;10.482;2023-10-09T15:21:21;50.70;;;40.77;;
23682;SDS011;24897;53.514;10.482;2023-10-09T15:24:10;50.03;;;39.67;;
23682;SDS011;24897;53.514;10.482;2023-10-09T15:26:59;49.23;;;39.33;;
23682;SDS011;24897;53.514;10.482;2023-10-09T15:29:43;51.70;;;41.53;;
23682;SDS011;24897;53.514;10.482;2023-10-09T15:32:28;50.27;;;39.93;;
23682;SDS011;24897;53.514;10.482;2023-10-09T15:35:13;50.57;;;40.20;;
23682;SDS011;24897;53.514;10.482;2023-10-09T15:37:57;50.10;;;38.70;;
23682;SDS011;24897;53.514;10.482;2023-10-09T15:40:46;47.13;;;36.10;;
23682;SDS011;24897;53.514;10.482;2023-10-09T15:43:31;48.17;;;37.23;;
23682;SDS011;24897;53.514;10.482;2023-10-09T15:46:16;51.87;;;38.80;;
23682;SDS011;24897;53.514;10.482;2023-10-09T15:49:01;49.63;;;39.23;;
23682;SDS011;24897;53.514;10.482;2023-10-09T15:51:46;51.23;;;39.07;;
23682;SDS011;24897;53.514;10.482;2023-10-09T15:54:31;50.47;;;40.03;;
23682;SDS011;24897;53.514;10.482;2023-10-09T15:57:14;47.43;;;37.10;;
23682;SDS011;24897;53.514;10.482;2023-10-09T16:00:00;50.63;;;38.63;;
23682;SDS011;24897;53.514;10.482;2023-10-09T16:02:46;49.20;;;37.67;;
23682;SDS011;24897;53.514;10.482;2023-10-09T16:05:30;50.83;;;38.93;;
23682;SDS011;24897;53.514;10.482;2023-10-09T16:08:19;46.17;;;34.70;;
23682;SDS011;24897;53.514;10.482;2023-10-09T16:11:06;48.27;;;35.60;;
23682;SDS011;24897;53.514;10.482;2023-10-09T16:13:51;46.27;;;33.63;;
23682;SDS011;24897;53.514;10.482;2023-10-09T16:16:37;49.17;;;35.23;;
23682;SDS011;24897;53.514;10.482;2023-10-09T16:19:25;50.03;;;36.53;;
23682;SDS011;24897;53.514;10.482;2023-10-09T16:22:11;46.63;;;34.53;;
23682;SDS011;24897;53.514;10.482;2023-10-09T16:24:59;46.70;;;33.97;;
23682;SDS011;24897;53.514;10.482;2023-10-09T16:27:44;47.93;;;34.60;;
23682;SDS011;24897;53.514;10.482;2023-10-09T16:30:31;49.27;;;36.93;;
23682;SDS011;24897;53.514;10.482;2023-10-09T16:33:15;45.57;;;33.43;;
23682;SDS011;24897;53.514;10.482;2023-10-09T16:36:00;46.40;;;32.93;;